• Join FlightAware (Why Join?)
  • Login
  • US Flag 
08:50AM EDT


 

Airport Tracker/Info


-or-


 

Live Flight TrackerFlight Track Log ✈ AAL1326 ✈ 14-Apr-2013 ✈ KMCI - KORD

Flight Track Log - Related Links

Times and Time Zones

All times are in EDT time to prevent confusion due to time zone crossing. See the AAL1326 flight status page for this flight to view local times or setup timezone preferences in your user account.

Time Position Orientation Groundspeed Altitude Reporting Facility
EDT Latitude Longitude Course Direction KTS MPH feet Rate Location/Type
04:45PM 39.1790 -94.7160 133° Southeast 265 305 7,300  Level FlightAware
04:45PM 39.1730 -94.6960 111° Southeast 282 325 7,900 2,880 Climbing FlightAware
04:45PM 39.1720 -94.6770 94° East 298 343 8,500 3,240 Climbing FlightAware
04:46PM 39.1750 -94.6030 87° East 319 367 10,600 2,160 Climbing FlightAware
04:47PM 39.1870 -94.5070 81° East 401 461 11,600 1,800 Climbing FlightAware
04:47PM 39.2040 -94.4820 49° Northeast 410 472 12,400 3,360 Climbing FlightAware
04:47PM 39.2220 -94.4690 29° Northeast 412 474 13,000 3,000 Climbing FlightAware
04:48PM 39.3050 -94.4380 16° North 422 486 15,200 2,940 Climbing FlightAware
04:48PM 39.3820 -94.4090 16° North 433 498 17,200 2,820 Climbing FlightAware
04:49PM 39.4600 -94.3790 17° North 442 509 19,000 2,520 Climbing FlightAware
04:50PM 39.5470 -94.3460 16° North 454 522 20,800 2,400 Climbing FlightAware
04:51PM 39.6270 -94.3150 17° North 462 532 22,400 2,280 Climbing FlightAware
04:51PM 39.6580 -94.2920 30° Northeast 471 542 22,900 960 Climbing FlightAware
04:51PM 39.7260 -94.2180 40° Northeast 476 548 23,300 1,740 Climbing FlightAware
04:52PM 39.7950 -94.1340 43° Northeast 467 537 25,400 2,580 Climbing FlightAware
04:53PM 39.8550 -94.0590 44° Northeast 463 533 27,000 1,080 Climbing FlightAware
04:54PM 39.9290 -93.9660 44° Northeast 465 535 27,000  Level FlightAware
04:54PM 39.9890 -93.8910 44° Northeast 462 532 27,000  Level FlightAware
04:55PM 40.0560 -93.8060 44° Northeast 462 532 27,000  Level FlightAware
04:56PM 40.1190 -93.7280 43° Northeast 461 531 27,000  Level FlightAware
04:56PM 40.1790 -93.6540 43° Northeast 460 529 27,000  Level FlightAware
04:57PM 40.2490 -93.5670 43° Northeast 462 532 27,000  Level FlightAware
04:58PM 40.3150 -93.4860 43° Northeast 463 533 27,000  Level FlightAware
04:59PM 40.3710 -93.3910 52° Northeast 470 541 27,000  Level FlightAware
04:59PM 40.3840 -93.2890 80° East 469 540 27,000  Level FlightAware
05:00PM 40.3940 -93.1780 83° East 469 540 27,000  Level FlightAware
05:01PM 40.4110 -93.0170 82° East 468 539 27,000  Level FlightAware
05:02PM 40.4220 -92.8850 84° East 465 535 27,000  Level FlightAware
05:02PM 40.4330 -92.7710 83° East 464 534 27,000  Level FlightAware
05:03PM 40.4420 -92.6790 83° East 463 533 27,000  Level FlightAware
05:04PM 40.4570 -92.5110 83° East 462 532 27,000  Level FlightAware
05:05PM 40.4680 -92.3890 83° East 462 532 27,000  Level FlightAware
05:05PM 40.4770 -92.2920 83° East 462 532 27,000  Level FlightAware
05:06PM 40.4890 -92.1620 83° East 463 533 27,000  Level FlightAware
05:07PM 40.5010 -92.0190 84° East 462 532 27,000  Level FlightAware
05:08PM 40.5140 -91.8670 84° East 461 531 27,000  Level FlightAware
05:08PM 40.5240 -91.7560 83° East 461 531 27,000  Level FlightAware
05:09PM 40.5340 -91.6340 84° East 462 532 27,000  Level FlightAware
05:10PM 40.5440 -91.5230 83° East 464 534 27,000  Level FlightAware
05:10PM 40.5530 -91.4240 83° East 468 539 27,000  Level FlightAware
05:11PM 40.5880 -91.3020 69° East 469 540 27,000  Level FlightAware
05:12PM 40.6270 -91.1900 65° Northeast 467 537 27,000  Level FlightAware
05:13PM 40.6680 -91.0730 65° Northeast 466 536 27,000  Level FlightAware
05:13PM 40.7080 -90.9530 66° East 466 536 27,000  Level FlightAware
05:14PM 40.7630 -90.7890 66° East 465 535 27,000  Level FlightAware
05:15PM 40.7940 -90.6960 66° East 466 536 27,000  Level FlightAware
05:16PM 40.8310 -90.5880 66° East 466 536 27,000  Level FlightAware
05:16PM 40.8690 -90.4740 66° East 467 537 27,000  Level FlightAware
05:17PM 40.8970 -90.3880 67° East 467 537 27,000 -600 Level FlightAware
05:18PM 40.9370 -90.2700 66° East 459 528 26,200 -1,020 Descending FlightAware
05:18PM 40.9720 -90.1630 67° East 447 514 25,500 -1,080 Descending FlightAware
05:19PM 41.0080 -90.0540 66° East 435 501 24,700 -1,020 Descending FlightAware
05:20PM 41.0440 -89.9440 67° East 433 498 24,100 -540 Descending FlightAware
05:21PM 41.0750 -89.8480 67° East 400 460 24,000 -120 Descending FlightAware
05:21PM 41.1040 -89.7600 66° East 393 452 24,000 -900 Level FlightAware
05:22PM 41.1350 -89.6650 67° East 393 452 22,800 -1,680 Descending FlightAware
05:23PM 41.1650 -89.5750 66° East 390 449 21,700 -1,560 Descending FlightAware
05:23PM 41.2050 -89.4760 62° Northeast 377 434 20,500 -1,620 Descending FlightAware
05:24PM 41.2290 -89.4160 62° Northeast 373 429 19,600 -1,860 Descending FlightAware
05:25PM 41.2620 -89.3360 61° Northeast 368 423 18,500 -1,740 Descending FlightAware
05:25PM 41.2970 -89.2490 62° Northeast 362 417 17,300 -1,680 Descending FlightAware
05:26PM 41.3320 -89.1600 62° Northeast 360 414 16,000 -1,560 Descending FlightAware
05:27PM 41.3600 -89.0920 61° Northeast 356 410 15,100 -960 Descending FlightAware
05:27PM 41.3950 -89.0030 62° Northeast 323 372 14,700 -660 Descending FlightAware
05:28PM 41.4220 -88.9350 62° Northeast 306 352 14,200 -1,020 Descending FlightAware
05:29PM 41.4510 -88.8630 62° Northeast 303 349 13,300 -1,140 Descending FlightAware
05:30PM 41.4780 -88.7940 62° Northeast 296 341 12,600 -900 Descending FlightAware
05:30PM 41.5010 -88.7350 62° Northeast 283 326 12,100 -1,020 Descending FlightAware
05:31PM 41.5290 -88.6650 62° Northeast 283 326 11,200 -600 Descending FlightAware
05:32PM 41.5530 -88.5920 66° East 282 325 11,200 -360 Level FlightAware
05:32PM 41.5750 -88.5300 65° Northeast 284 327 10,700 -1,020 Descending FlightAware
05:33PM 41.5980 -88.4640 65° Northeast 283 326 9,900 -1,140 Descending FlightAware
05:34PM 41.6130 -88.4210 65° Northeast 281 323 9,400 -1,080 Descending FlightAware
05:34PM 41.6250 -88.3860 65° Northeast 281 323 9,000 -1,080 Descending FlightAware
05:34PM 41.6410 -88.3410 65° Northeast 277 319 8,500 -840 Descending FlightAware
05:35PM 41.6580 -88.2920 65° Northeast 274 315 8,200 -300 Descending FlightAware
05:35PM 41.6740 -88.2450 65° Northeast 272 313 8,200  Level FlightAware
05:36PM 41.6820 -88.2240 63° Northeast 270 311 8,200 -960 Level FlightAware
05:36PM 41.7080 -88.1890 45° Northeast 278 320 7,500 -1,560 Descending FlightAware
05:37PM 41.7330 -88.1590 42° Northeast 287 330 6,800 -1,740 Descending FlightAware
05:37PM 41.7440 -88.1470 39° Northeast 290 334 6,500 -1,080 Descending FlightAware
05:37PM 41.7800 -88.1040 42° Northeast 276 318 6,000 -720 Descending FlightAware
05:38PM 41.8020 -88.0780 41° Northeast 258 297 5,800 -600 Descending FlightAware
05:38PM 41.8260 -88.0500 41° Northeast 238 274 5,500 -660 Descending FlightAware
05:39PM 41.8460 -88.0270 41° Northeast 216 249 5,200 -900 Descending FlightAware
05:39PM 41.8680 -88.0040 38° Northeast 195 224 4,700 -1,080 Descending FlightAware
05:39PM 41.8790 -87.9880 47° Northeast 171 197 4,400 -1,200 Descending FlightAware
05:40PM 41.8820 -87.9740 74° East 155 178 4,100 -1,200 Descending FlightAware
05:40PM 41.8830 -87.9680 77° East 150 173 3,900 -1,920 Descending FlightAware
05:40PM 41.8930 -87.9570 39° Northeast 175 201 3,300 -1,920 Descending FlightAware
05:41PM 41.9130 -87.9470 20° North 163 188 2,500 -1,680 Descending FlightAware
05:41PM 41.9280 -87.9310 38° Northeast 155 178 1,800 -1,440 Descending FlightAware
05:41PM 41.9440 -87.9110 43° Northeast 146 168 1,200 -1,200 Descending FlightAware